createdAt,value
2022-07-25T00:01:49.759Z,99898.03
2022-07-25T00:04:18.069Z,99896.91
2022-07-25T00:06:46.049Z,99892.84
2022-07-25T00:09:13.176Z,99896.59
2022-07-25T00:11:40.573Z,99890.94
2022-07-25T00:14:08.092Z,99887.41
2022-07-25T00:16:35.637Z,99893.87
2022-07-25T00:19:03.254Z,99889.31
2022-07-25T00:21:30.365Z,99890.97
2022-07-25T00:23:57.470Z,99881.16
2022-07-25T00:26:24.911Z,99897.19
2022-07-25T00:28:52.041Z,99889.56
2022-07-25T00:31:19.281Z,99887.66
2022-07-25T00:33:46.724Z,99883.28
2022-07-25T00:36:13.823Z,99887.66
2022-07-25T00:38:40.934Z,99884.69
2022-07-25T00:41:08.376Z,99888.19
2022-07-25T00:43:35.486Z,99891.72
2022-07-25T00:46:02.606Z,99883.81
2022-07-25T00:48:30.334Z,99884.63
2022-07-25T00:50:57.500Z,99889.44
2022-07-25T00:53:24.722Z,99889.16
2022-07-25T00:55:52.137Z,99889.19
2022-07-25T00:58:19.350Z,99901.09
2022-07-25T01:00:46.788Z,99891.12
2022-07-25T01:03:14.229Z,99878.94
2022-07-25T01:05:41.401Z,99879.75
2022-07-25T01:08:08.974Z,99882.94
2022-07-25T01:10:36.489Z,99883.97
2022-07-25T01:13:03.648Z,99882.34
2022-07-25T01:15:30.852Z,99883.78
2022-07-25T01:17:58.218Z,99881.53
2022-07-25T01:20:27.225Z,99880.72
2022-07-25T01:22:54.393Z,99874.78
2022-07-25T01:25:21.808Z,99888.59
2022-07-25T01:27:54.654Z,99878.00
2022-07-25T01:30:22.505Z,99882.94
2022-07-25T01:32:49.645Z,99883.97
2022-07-25T01:35:16.792Z,99881.75
2022-07-25T01:37:45.791Z,99875.81
2022-07-25T01:40:13.693Z,99881.03
2022-07-25T01:42:41.021Z,99877.38
2022-07-25T01:45:08.562Z,99868.12
2022-07-25T01:47:35.696Z,99875.00
2022-07-25T01:50:02.827Z,99876.31
2022-07-25T01:52:30.226Z,99870.25
2022-07-25T01:54:57.326Z,99873.03
2022-07-25T01:57:25.000Z,99874.47
2022-07-25T01:59:58.707Z,99861.25
2022-07-25T02:02:26.147Z,99869.94
2022-07-25T02:04:53.634Z,99860.22
2022-07-25T02:07:20.798Z,99860.47
2022-07-25T02:09:48.785Z,99862.34
2022-07-25T02:12:18.434Z,99859.28
2022-07-25T02:14:45.585Z,99854.50
2022-07-25T02:17:12.768Z,99852.03
2022-07-25T02:19:40.202Z,99862.25
2022-07-25T02:22:07.445Z,99867.06
2022-07-25T02:24:34.586Z,99863.09
2022-07-25T02:27:01.937Z,99866.72
2022-07-25T02:29:29.110Z,99867.66
2022-07-25T02:31:56.235Z,99855.16
2022-07-25T02:34:23.663Z,99857.06
2022-07-25T02:36:50.752Z,99868.97
2022-07-25T02:39:17.874Z,99866.41
2022-07-25T02:41:45.253Z,99866.16
2022-07-25T02:44:12.407Z,99859.59
2022-07-25T02:46:39.502Z,99872.16
2022-07-25T02:49:06.967Z,99868.91
2022-07-25T02:51:34.119Z,99871.31
2022-07-25T02:54:01.238Z,99874.41
2022-07-25T02:56:30.135Z,99874.44
2022-07-25T02:58:57.593Z,99883.38
2022-07-25T03:01:24.857Z,99884.47
2022-07-25T03:03:52.721Z,99874.41
2022-07-25T03:06:19.954Z,99885.09
2022-07-25T03:08:47.066Z,99887.53
2022-07-25T03:11:14.478Z,99885.00
2022-07-25T03:13:41.582Z,99884.97
2022-07-25T03:16:09.778Z,99883.94
2022-07-25T03:18:37.241Z,99892.88
2022-07-25T03:21:04.463Z,99895.34
2022-07-25T03:23:31.642Z,99897.69
2022-07-25T03:25:59.002Z,99896.06
2022-07-25T03:28:26.179Z,99895.81
2022-07-25T03:30:53.294Z,99893.50
2022-07-25T03:33:20.699Z,99897.09
2022-07-25T03:35:47.842Z,99890.31
2022-07-25T03:38:14.978Z,99896.63
2022-07-25T03:40:42.368Z,99899.34
2022-07-25T03:43:09.466Z,99905.09
2022-07-25T03:45:36.684Z,99899.59
2022-07-25T03:48:04.114Z,99904.47
2022-07-25T03:50:31.307Z,99896.06
2022-07-25T03:52:58.422Z,99901.78
2022-07-25T03:55:25.806Z,99897.19
2022-07-25T03:57:52.912Z,99892.94
2022-07-25T04:00:20.045Z,99901.50
2022-07-25T04:02:47.575Z,99893.56
2022-07-25T04:05:14.722Z,99898.25
2022-07-25T04:07:41.860Z,99897.44
2022-07-25T04:10:09.538Z,99901.16
2022-07-25T04:12:37.385Z,99903.75
2022-07-25T04:15:04.789Z,99909.63
2022-07-25T04:17:32.245Z,99910.22
2022-07-25T04:19:59.830Z,99902.13
2022-07-25T04:22:27.026Z,99907.94
2022-07-25T04:24:54.393Z,99909.75
2022-07-25T04:27:21.486Z,99911.69
2022-07-25T04:29:48.620Z,99908.47
2022-07-25T04:32:21.417Z,99906.28
2022-07-25T04:34:52.292Z,99911.41
2022-07-25T04:37:19.718Z,99901.84
2022-07-25T04:39:46.849Z,99903.50
2022-07-25T04:42:13.996Z,99901.63
2022-07-25T04:44:41.375Z,99905.50
2022-07-25T04:47:08.481Z,99896.34
2022-07-25T04:49:35.573Z,99895.53
2022-07-25T04:52:02.971Z,99909.72
2022-07-25T04:54:30.092Z,99897.44
2022-07-25T04:56:58.818Z,99889.88
2022-07-25T04:59:26.201Z,99889.91
2022-07-25T05:01:53.389Z,99884.66
2022-07-25T05:04:20.534Z,99890.69
2022-07-25T05:06:47.938Z,99875.41
2022-07-25T05:09:15.086Z,99870.50
2022-07-25T05:11:47.313Z,99868.47
2022-07-25T05:14:16.138Z,99862.81
2022-07-25T05:16:43.316Z,99862.81
2022-07-25T05:19:10.508Z,99856.47
2022-07-25T05:21:38.306Z,99845.47
2022-07-25T05:24:05.732Z,99853.09
2022-07-25T05:26:33.126Z,99838.25
2022-07-25T05:29:00.579Z,99837.94
2022-07-25T05:31:27.776Z,99833.31
2022-07-25T05:33:54.914Z,99827.88
2022-07-25T05:36:22.306Z,99841.94
2022-07-25T05:38:49.443Z,99826.81
2022-07-25T05:41:16.590Z,99828.03
2022-07-25T05:43:46.146Z,99838.16
2022-07-25T05:46:13.310Z,99829.34
2022-07-25T05:48:40.830Z,99825.22
2022-07-25T05:51:08.245Z,99828.28
2022-07-25T05:53:35.441Z,99818.06
2022-07-25T05:56:02.598Z,99822.34
2022-07-25T05:58:30.291Z,99823.38
2022-07-25T06:00:57.932Z,99820.50
2022-07-25T06:03:25.369Z,99830.53
2022-07-25T06:05:52.674Z,99815.69
2022-07-25T06:08:19.821Z,99810.66
2022-07-25T06:10:49.932Z,99816.13
2022-07-25T06:13:17.099Z,99799.06
2022-07-25T06:15:47.851Z,99806.75
2022-07-25T06:18:15.597Z,99805.06
2022-07-25T06:20:42.712Z,99802.94
2022-07-25T06:23:09.854Z,99807.75
2022-07-25T06:25:37.238Z,99802.66
2022-07-25T06:28:04.506Z,99802.16
2022-07-25T06:30:31.640Z,99796.97
2022-07-25T06:32:59.011Z,99796.88
2022-07-25T06:35:26.163Z,99802.13
2022-07-25T06:37:53.274Z,99792.44
2022-07-25T06:40:20.671Z,99790.56
2022-07-25T06:42:47.851Z,99790.69
2022-07-25T06:45:15.128Z,99781.03
2022-07-25T06:47:43.005Z,99781.25
2022-07-25T06:50:11.724Z,99777.19
2022-07-25T06:52:39.150Z,99768.50
2022-07-25T06:55:06.960Z,99780.16
2022-07-25T06:57:34.158Z,99786.50
2022-07-25T07:00:01.311Z,99798.22
2022-07-25T07:02:28.684Z,99801.72
2022-07-25T07:04:55.808Z,99787.28
2022-07-25T07:07:23.041Z,99809.84
2022-07-25T07:09:50.411Z,99788.44
2022-07-25T07:12:17.518Z,99783.66
2022-07-25T07:14:45.274Z,99775.66
2022-07-25T07:17:12.670Z,99772.25
2022-07-25T07:19:44.389Z,99767.34
2022-07-25T07:22:11.590Z,99754.59
2022-07-25T07:24:44.143Z,99761.69
2022-07-25T07:27:12.321Z,99776.19
2022-07-25T07:29:39.438Z,99763.38
2022-07-25T07:32:07.110Z,99781.91
2022-07-25T07:34:34.344Z,99770.22
2022-07-25T07:37:02.494Z,99756.94
2022-07-25T07:39:29.894Z,99756.81
2022-07-25T07:41:57.027Z,99770.03
2022-07-25T07:44:24.129Z,99761.50
2022-07-25T07:46:51.529Z,99762.09
2022-07-25T07:49:18.831Z,99759.94
2022-07-25T07:51:46.014Z,99762.34
2022-07-25T07:54:32.253Z,99761.19
2022-07-25T07:56:59.384Z,99750.31
2022-07-25T07:59:26.769Z,99756.31
2022-07-25T08:01:54.039Z,99758.56
2022-07-25T08:04:21.466Z,99759.97
2022-07-25T08:06:48.568Z,99753.78
2022-07-25T08:09:15.669Z,99751.50
2022-07-25T08:11:43.121Z,99755.44
2022-07-25T08:14:10.565Z,99743.22
2022-07-25T08:16:37.944Z,99741.47
2022-07-25T08:19:05.377Z,99739.53
2022-07-25T08:21:32.510Z,99736.19
2022-07-25T08:24:00.137Z,99738.38
2022-07-25T08:26:27.974Z,99735.00
2022-07-25T08:29:17.500Z,99730.62
2022-07-25T08:31:43.156Z,99738.09
2022-07-25T08:34:10.504Z,99731.25
2022-07-25T08:36:38.169Z,99735.41
2022-07-25T08:39:05.629Z,99733.94
2022-07-25T08:41:33.364Z,99727.31
2022-07-25T08:44:00.926Z,99733.78
2022-07-25T08:46:30.148Z,99744.97
2022-07-25T08:48:57.487Z,99727.81
2022-07-25T08:51:24.655Z,99721.06
2022-07-25T08:53:52.021Z,99726.59
2022-07-25T08:56:21.357Z,99722.16
2022-07-25T08:58:49.673Z,99728.63
2022-07-25T09:01:17.197Z,99720.59
2022-07-25T09:03:44.378Z,99719.69
2022-07-25T09:06:15.532Z,99720.84
2022-07-25T09:08:52.001Z,99707.91
2022-07-25T09:11:28.977Z,99716.06
2022-07-25T09:14:15.173Z,99710.16
2022-07-25T09:16:44.250Z,99703.50
2022-07-25T09:19:12.847Z,99697.75
2022-07-25T09:21:40.239Z,99701.34
2022-07-25T09:24:08.240Z,99689.09
2022-07-25T09:26:44.909Z,99695.19
2022-07-25T09:29:24.886Z,99687.41
2022-07-25T09:31:52.801Z,99691.75
2022-07-25T09:34:36.239Z,99694.44
2022-07-25T09:37:10.213Z,99691.44
2022-07-25T09:39:45.452Z,99688.59
2022-07-25T09:42:32.969Z,99681.31
2022-07-25T09:45:12.444Z,99680.69
2022-07-25T09:47:54.910Z,99690.16
2022-07-25T09:50:22.421Z,99683.63
2022-07-25T09:52:50.415Z,99684.25
2022-07-25T09:55:17.681Z,99675.84
2022-07-25T09:57:48.977Z,99674.22
2022-07-25T10:00:20.012Z,99676.81
2022-07-25T10:02:50.220Z,99663.03
2022-07-25T10:05:20.592Z,99663.28
2022-07-25T10:07:49.499Z,99657.19
2022-07-25T10:10:30.389Z,99664.94
2022-07-25T10:12:58.933Z,99659.59
2022-07-25T10:15:26.032Z,99646.53
2022-07-25T10:18:01.999Z,99643.59
2022-07-25T10:20:29.436Z,99635.84
2022-07-25T10:22:57.553Z,99641.38
2022-07-25T10:25:25.278Z,99630.00
2022-07-25T10:27:59.854Z,99635.87
2022-07-25T10:30:27.683Z,99649.19
2022-07-25T10:32:58.562Z,99642.72
2022-07-25T10:35:26.474Z,99630.91
2022-07-25T10:37:54.135Z,99627.72
2022-07-25T10:40:27.337Z,99620.00
2022-07-25T10:42:58.205Z,99614.16
2022-07-25T10:45:26.709Z,99614.81
2022-07-25T10:47:54.186Z,99610.00
2022-07-25T10:50:39.980Z,99607.69
2022-07-25T10:53:09.233Z,99599.84
2022-07-25T10:55:37.000Z,99603.06
2022-07-25T10:58:22.181Z,99618.28
2022-07-25T11:00:51.339Z,99629.75
2022-07-25T11:03:18.958Z,99626.56
2022-07-25T11:05:46.685Z,99625.66
2022-07-25T11:08:22.643Z,99623.34
2022-07-25T11:10:53.494Z,99627.37
2022-07-25T11:13:21.166Z,99631.75
2022-07-25T11:15:48.486Z,99623.03
2022-07-25T11:18:15.668Z,99618.09
2022-07-25T11:20:43.038Z,99628.37
2022-07-25T11:23:10.125Z,99621.56
2022-07-25T11:25:37.480Z,99618.00
2022-07-25T11:28:04.934Z,99614.81
2022-07-25T11:30:32.458Z,99609.03
2022-07-25T11:33:01.387Z,99607.28
2022-07-25T11:35:30.038Z,99600.53
2022-07-25T11:37:57.411Z,99596.31
2022-07-25T11:40:25.778Z,99597.50
2022-07-25T11:42:54.123Z,99600.53
2022-07-25T11:45:23.715Z,99590.03
2022-07-25T11:48:01.694Z,99582.63
2022-07-25T11:50:29.609Z,99581.19
2022-07-25T11:53:03.568Z,99582.97
2022-07-25T11:55:36.444Z,99570.97
2022-07-25T11:58:04.094Z,99568.78
2022-07-25T12:00:33.637Z,99567.37
2022-07-25T12:03:13.055Z,99567.50
2022-07-25T12:05:44.324Z,99573.53
2022-07-25T12:08:19.086Z,99566.25
2022-07-25T12:10:51.179Z,99564.50
2022-07-25T12:13:22.244Z,99563.00
2022-07-25T12:15:49.360Z,99555.66
2022-07-25T12:18:16.465Z,99559.69
2022-07-25T12:20:43.974Z,99544.66
2022-07-25T12:23:11.572Z,99545.91
2022-07-25T12:25:39.483Z,99538.25
2022-07-25T12:28:07.196Z,99538.88
2022-07-25T12:30:34.396Z,99533.28
2022-07-25T12:33:01.582Z,99524.12
2022-07-25T12:35:29.088Z,99515.69
2022-07-25T12:37:56.234Z,99513.87
2022-07-25T12:40:24.075Z,99511.13
2022-07-25T12:42:51.587Z,99515.56
2022-07-25T12:45:18.734Z,99504.94
2022-07-25T12:47:46.213Z,99500.34
2022-07-25T12:50:13.814Z,99498.25
2022-07-25T12:52:41.335Z,99489.53
2022-07-25T12:55:09.403Z,99486.28
2022-07-25T12:57:36.892Z,99482.03
2022-07-25T13:00:04.729Z,99484.00
2022-07-25T13:02:31.928Z,99481.28
2022-07-25T13:04:59.405Z,99474.84
2022-07-25T13:07:26.558Z,99472.47
2022-07-25T13:09:54.293Z,99462.16
2022-07-25T13:12:23.569Z,99460.00
2022-07-25T13:14:50.892Z,99458.09
2022-07-25T13:17:18.014Z,99460.16
2022-07-25T13:19:45.498Z,99458.16
2022-07-25T13:22:12.685Z,99447.56
2022-07-25T13:24:40.020Z,99453.41
2022-07-25T13:27:07.468Z,99454.91
2022-07-25T13:29:34.602Z,99444.25
2022-07-25T13:32:01.988Z,99442.19
2022-07-25T13:34:29.744Z,99432.22
2022-07-25T13:36:56.902Z,99422.69
2022-07-25T13:39:24.160Z,99429.00
2022-07-25T13:41:51.605Z,99428.53
2022-07-25T13:44:18.846Z,99420.94
2022-07-25T13:46:49.819Z,99415.50
2022-07-25T13:49:17.792Z,99415.38
2022-07-25T13:51:45.612Z,99416.41
2022-07-25T13:54:12.814Z,99412.97
2022-07-25T13:56:41.489Z,99411.84
2022-07-25T13:59:09.052Z,99403.19
2022-07-25T14:01:36.355Z,99404.00
2022-07-25T14:04:03.799Z,99401.28
2022-07-25T14:06:30.910Z,99391.09
2022-07-25T14:08:58.014Z,99384.28
2022-07-25T14:11:30.367Z,99384.44
2022-07-25T14:13:58.074Z,99380.31
2022-07-25T14:16:25.433Z,99377.91
2022-07-25T14:18:54.035Z,99371.34
2022-07-25T14:21:21.168Z,99374.00
2022-07-25T14:23:48.706Z,99372.50
2022-07-25T14:26:15.862Z,99365.50
2022-07-25T14:28:43.605Z,99358.28
2022-07-25T14:31:11.490Z,99360.59
2022-07-25T14:33:40.136Z,99364.38
2022-07-25T14:36:10.203Z,99359.22
2022-07-25T14:38:37.580Z,99355.28
2022-07-25T14:41:10.475Z,99349.44
2022-07-25T14:43:40.514Z,99350.88
2022-07-25T14:46:08.328Z,99347.78
2022-07-25T14:48:35.861Z,99344.00
2022-07-25T14:51:03.403Z,99343.31
2022-07-25T14:53:30.540Z,99341.75
2022-07-25T14:55:57.657Z,99335.97
2022-07-25T14:58:25.102Z,99332.72
2022-07-25T15:00:52.318Z,99325.38
2022-07-25T15:03:19.626Z,99315.69
2022-07-25T15:05:47.023Z,99321.16
2022-07-25T15:08:14.383Z,99315.25
2022-07-25T15:10:41.526Z,99312.69
2022-07-25T15:13:30.096Z,99311.81
2022-07-25T15:15:56.252Z,99308.56
2022-07-25T15:18:23.735Z,99308.03
2022-07-25T15:20:51.856Z,99304.75
2022-07-25T15:23:20.898Z,99301.50
2022-07-25T15:26:04.455Z,99297.06
2022-07-25T15:28:35.157Z,99288.97
2022-07-25T15:31:02.715Z,99283.66
2022-07-25T15:33:29.972Z,99281.56
2022-07-25T15:35:57.101Z,99277.78
2022-07-25T15:38:24.608Z,99265.34
2022-07-25T15:40:51.724Z,99270.53
2022-07-25T15:43:18.870Z,99267.19
2022-07-25T15:45:46.320Z,99263.28
2022-07-25T15:48:13.679Z,99261.00
2022-07-25T15:50:42.595Z,99257.78
2022-07-25T15:53:09.948Z,99268.91
2022-07-25T15:55:37.296Z,99261.91
2022-07-25T15:58:04.505Z,99262.37
2022-07-25T16:00:31.904Z,99257.78
2022-07-25T16:02:59.362Z,99258.81
2022-07-25T16:05:26.469Z,99259.34
2022-07-25T16:07:53.594Z,99254.78
2022-07-25T16:10:20.995Z,99254.66
2022-07-25T16:12:48.106Z,99256.16
2022-07-25T16:15:16.107Z,99251.91
2022-07-25T16:17:43.494Z,99263.97
2022-07-25T16:20:11.566Z,99259.06
2022-07-25T16:22:39.486Z,99253.16
2022-07-25T16:25:06.999Z,99247.88
2022-07-25T16:27:34.189Z,99249.19
2022-07-25T16:30:01.489Z,99250.28
2022-07-25T16:32:31.718Z,99256.28
2022-07-25T16:34:58.854Z,99248.03
2022-07-25T16:37:25.977Z,99251.25
2022-07-25T16:39:53.438Z,99257.84
2022-07-25T16:42:20.550Z,99256.91
2022-07-25T16:44:48.562Z,99242.88
2022-07-25T16:47:15.944Z,99246.50
2022-07-25T16:49:43.081Z,99256.88
2022-07-25T16:52:10.262Z,99245.75
2022-07-25T16:54:37.795Z,99242.56
2022-07-25T16:57:04.947Z,99256.81
2022-07-25T16:59:32.051Z,99259.59
2022-07-25T17:01:59.546Z,99251.66
2022-07-25T17:04:27.236Z,99251.28
2022-07-25T17:06:55.322Z,99250.75
2022-07-25T17:09:23.207Z,99241.78
2022-07-25T17:11:50.313Z,99245.81
2022-07-25T17:14:17.471Z,99243.66
2022-07-25T17:16:45.302Z,99241.25
2022-07-25T17:19:12.460Z,99244.63
2022-07-25T17:21:39.577Z,99248.06
2022-07-25T17:24:07.206Z,99243.56
2022-07-25T17:26:34.986Z,99243.38
2022-07-25T17:29:02.116Z,99245.72
2022-07-25T17:31:29.552Z,99244.72
2022-07-25T17:33:56.753Z,99245.25
2022-07-25T17:36:23.894Z,99246.81
2022-07-25T17:38:51.283Z,99241.50
2022-07-25T17:41:18.388Z,99243.91
2022-07-25T17:43:45.482Z,99239.56
2022-07-25T17:46:13.880Z,99246.81
2022-07-25T17:48:41.160Z,99243.75
2022-07-25T17:51:08.441Z,99248.38
2022-07-25T17:53:35.845Z,99240.56
2022-07-25T17:56:03.367Z,99241.53
2022-07-25T17:58:31.409Z,99232.34
2022-07-25T18:01:01.313Z,99233.16
2022-07-25T18:03:29.586Z,99236.19
2022-07-25T18:05:57.475Z,99245.38
2022-07-25T18:08:24.594Z,99237.94
2022-07-25T18:10:51.940Z,99236.19
2022-07-25T18:13:19.098Z,99233.94
2022-07-25T18:15:46.551Z,99232.81
2022-07-25T18:18:18.472Z,99233.78
2022-07-25T18:20:47.767Z,99225.22
2022-07-25T18:23:15.163Z,99226.13
2022-07-25T18:25:43.858Z,99225.97
2022-07-25T18:28:11.638Z,99221.94
2022-07-25T18:30:39.204Z,99222.56
2022-07-25T18:33:07.355Z,99222.72
2022-07-25T18:35:34.526Z,99220.97
2022-07-25T18:38:01.928Z,99221.16
2022-07-25T18:40:29.068Z,99218.56
2022-07-25T18:42:56.191Z,99222.53
2022-07-25T18:45:24.078Z,99219.53
2022-07-25T18:47:52.102Z,99214.63
2022-07-25T18:50:21.791Z,99220.28
2022-07-25T18:52:49.214Z,99219.44
2022-07-25T18:55:16.405Z,99224.47
2022-07-25T18:57:44.794Z,99220.41
2022-07-25T19:00:12.200Z,99222.94
2022-07-25T19:02:39.350Z,99229.72
2022-07-25T19:05:06.932Z,99234.81
2022-07-25T19:07:34.691Z,99225.41
2022-07-25T19:10:02.041Z,99228.94
2022-07-25T19:12:29.168Z,99237.78
2022-07-25T19:14:56.601Z,99233.06
2022-07-25T19:17:24.057Z,99230.25
2022-07-25T19:19:51.652Z,99229.69
2022-07-25T19:22:19.429Z,99227.25
2022-07-25T19:24:46.621Z,99223.78
2022-07-25T19:27:14.824Z,99227.34
2022-07-25T19:29:42.417Z,99231.84
2022-07-25T19:32:09.598Z,99232.75
2022-07-25T19:34:36.709Z,99225.34
2022-07-25T19:37:04.116Z,99230.34
2022-07-25T19:39:31.232Z,99225.34
2022-07-25T19:41:58.341Z,99238.59
2022-07-25T19:44:25.745Z,99234.34
2022-07-25T19:46:54.229Z,99234.94
2022-07-25T19:49:21.488Z,99244.09
2022-07-25T19:51:49.022Z,99246.50
2022-07-25T19:54:17.143Z,99235.00
2022-07-25T19:56:44.277Z,99238.19
2022-07-25T19:59:11.702Z,99239.84
2022-07-25T20:01:39.405Z,99237.81
2022-07-25T20:04:08.901Z,99233.34
2022-07-25T20:06:36.596Z,99235.06
2022-07-25T20:09:04.079Z,99238.94
2022-07-25T20:11:31.669Z,99237.88
2022-07-25T20:13:58.796Z,99240.00
2022-07-25T20:16:25.996Z,99239.47
2022-07-25T20:18:53.430Z,99235.12
2022-07-25T20:21:20.585Z,99236.75
2022-07-25T20:23:47.673Z,99238.19
2022-07-25T20:26:15.048Z,99241.63
2022-07-25T20:28:42.225Z,99237.59
2022-07-25T20:31:09.387Z,99242.81
2022-07-25T20:33:36.839Z,99236.91
2022-07-25T20:36:04.190Z,99241.63
2022-07-25T20:38:32.383Z,99234.31
2022-07-25T20:40:59.782Z,99245.44
2022-07-25T20:43:27.139Z,99241.81
2022-07-25T20:45:54.357Z,99242.47
2022-07-25T20:48:21.785Z,99234.66
2022-07-25T20:50:48.905Z,99238.97
2022-07-25T20:53:16.062Z,99233.94
2022-07-25T20:55:43.424Z,99241.09
2022-07-25T20:58:10.530Z,99241.03
2022-07-25T21:00:37.721Z,99237.31
2022-07-25T21:03:05.227Z,99241.50
2022-07-25T21:05:37.554Z,99237.78
2022-07-25T21:08:05.369Z,99237.31
2022-07-25T21:10:32.516Z,99237.44
2022-07-25T21:12:59.640Z,99231.06
2022-07-25T21:15:27.018Z,99224.72
2022-07-25T21:17:54.182Z,99220.19
2022-07-25T21:20:21.339Z,99230.81
2022-07-25T21:22:48.716Z,99236.75
2022-07-25T21:25:15.825Z,99235.72
2022-07-25T21:27:42.999Z,99231.16
2022-07-25T21:30:10.589Z,99235.22
2022-07-25T21:32:39.172Z,99232.59
2022-07-25T21:35:06.420Z,99234.53
2022-07-25T21:37:33.934Z,99231.50
2022-07-25T21:40:01.062Z,99237.41
2022-07-25T21:42:28.226Z,99225.56
2022-07-25T21:44:55.629Z,99234.47
2022-07-25T21:47:22.759Z,99229.63
2022-07-25T21:50:08.281Z,99234.28
2022-07-25T21:52:35.641Z,99229.25
2022-07-25T21:55:02.897Z,99224.84
2022-07-25T21:57:29.991Z,99218.31
2022-07-25T21:59:57.381Z,99224.56
2022-07-25T22:02:24.543Z,99228.94
2022-07-25T22:04:51.944Z,99224.56
2022-07-25T22:07:19.121Z,99223.69
2022-07-25T22:09:46.326Z,99226.38
2022-07-25T22:12:14.267Z,99219.78
2022-07-25T22:14:41.433Z,99215.31
2022-07-25T22:17:09.257Z,99217.00
2022-07-25T22:19:36.624Z,99214.59
2022-07-25T22:22:05.117Z,99215.09
2022-07-25T22:24:32.235Z,99214.84
2022-07-25T22:26:59.661Z,99211.44
2022-07-25T22:29:26.762Z,99222.75
2022-07-25T22:31:53.921Z,99219.88
2022-07-25T22:34:21.412Z,99214.44
2022-07-25T22:36:48.514Z,99221.75
2022-07-25T22:39:16.720Z,99219.22
2022-07-25T22:41:44.123Z,99220.44
2022-07-25T22:44:11.254Z,99231.41
2022-07-25T22:46:38.449Z,99229.28
2022-07-25T22:49:06.226Z,99228.34
2022-07-25T22:51:33.690Z,99244.44
2022-07-25T22:54:00.823Z,99234.31
2022-07-25T22:56:28.223Z,99242.72
2022-07-25T22:58:55.320Z,99240.91
2022-07-25T23:01:22.507Z,99242.91
2022-07-25T23:03:50.281Z,99248.00
2022-07-25T23:06:18.062Z,99250.31
2022-07-25T23:08:45.274Z,99254.97
2022-07-25T23:11:12.641Z,99261.28
2022-07-25T23:13:39.738Z,99256.31
2022-07-25T23:16:10.406Z,99255.97
2022-07-25T23:18:38.272Z,99250.03
2022-07-25T23:21:05.667Z,99259.78
2022-07-25T23:23:32.816Z,99256.63
2022-07-25T23:26:00.161Z,99269.22
2022-07-25T23:28:27.373Z,99261.91
2022-07-25T23:30:54.475Z,99269.06
2022-07-25T23:33:25.307Z,99271.09
2022-07-25T23:35:53.481Z,99277.69
2022-07-25T23:38:20.907Z,99277.13
2022-07-25T23:40:48.467Z,99272.22
2022-07-25T23:43:18.946Z,99268.41
2022-07-25T23:46:02.968Z,99277.09
2022-07-25T23:48:30.284Z,99264.22
2022-07-25T23:50:57.433Z,99267.06
2022-07-25T23:53:24.809Z,99268.09
2022-07-25T23:55:51.924Z,99265.81
2022-07-25T23:58:19.031Z,99258.62
